createdAt,value
2023-01-04T00:01:54.324Z,79.75
2023-01-04T00:04:20.918Z,79.68
2023-01-04T00:06:47.387Z,79.99
2023-01-04T00:09:13.883Z,78.96
2023-01-04T00:11:40.371Z,79.27
2023-01-04T00:14:06.829Z,79.82
2023-01-04T00:16:33.337Z,80.01
2023-01-04T00:18:59.869Z,79.59
2023-01-04T00:21:31.095Z,78.18
2023-01-04T00:24:00.742Z,78.52
2023-01-04T00:26:33.296Z,78.69
2023-01-04T00:29:02.898Z,79.35
2023-01-04T00:31:30.049Z,79.93
2023-01-04T00:33:58.109Z,79.14
2023-01-04T00:36:24.928Z,79.38
2023-01-04T00:39:10.428Z,80.45
2023-01-04T00:42:02.139Z,80.65
2023-01-04T00:44:24.473Z,79.62
2023-01-04T00:46:51.044Z,81.24
2023-01-04T00:49:17.527Z,79.54
2023-01-04T00:51:44.018Z,81.75
2023-01-04T00:54:14.222Z,80.18
2023-01-04T00:56:40.755Z,81.33
2023-01-04T00:59:07.291Z,80.84
2023-01-04T01:01:34.717Z,80.90
2023-01-04T01:04:04.111Z,80.35
2023-01-04T01:06:31.678Z,80.43
2023-01-04T01:08:58.998Z,78.50
2023-01-04T01:11:25.874Z,79.73
2023-01-04T01:13:52.364Z,79.34
2023-01-04T01:16:44.475Z,79.48
2023-01-04T01:19:07.875Z,78.29
2023-01-04T01:21:34.489Z,78.43
2023-01-04T01:24:00.973Z,77.34
2023-01-04T01:26:27.591Z,78.82
2023-01-04T01:28:54.049Z,78.77
2023-01-04T01:31:23.545Z,77.57
2023-01-04T01:33:51.190Z,78.03
2023-01-04T01:36:19.036Z,78.04
2023-01-04T01:38:46.063Z,78.09
2023-01-04T01:41:20.585Z,76.91
2023-01-04T01:43:53.566Z,77.42
2023-01-04T01:46:24.351Z,77.28
2023-01-04T01:48:52.699Z,77.67
2023-01-04T01:51:19.383Z,76.83
2023-01-04T01:53:49.905Z,77.29
2023-01-04T01:56:17.822Z,76.62
2023-01-04T01:58:46.925Z,76.13
2023-01-04T02:01:13.538Z,76.38
2023-01-04T02:03:42.201Z,76.04
2023-01-04T02:06:11.646Z,76.56
2023-01-04T02:08:39.377Z,76.00
2023-01-04T02:11:06.202Z,75.72
2023-01-04T02:13:53.171Z,75.18
2023-01-04T02:16:27.084Z,74.93
2023-01-04T02:19:04.081Z,75.96
2023-01-04T02:22:01.158Z,75.36
2023-01-04T02:24:43.318Z,75.70
2023-01-04T02:27:33.630Z,75.59
2023-01-04T02:30:39.070Z,74.67
2023-01-04T02:33:28.046Z,75.58
2023-01-04T02:36:06.577Z,75.19
2023-01-04T02:39:01.954Z,74.25
2023-01-04T02:41:34.640Z,74.94
2023-01-04T02:44:29.916Z,75.84
2023-01-04T02:47:48.323Z,75.19
2023-01-04T02:50:32.028Z,75.29
2023-01-04T02:53:06.401Z,76.47
2023-01-04T02:55:48.271Z,75.16
2023-01-04T02:59:16.813Z,75.71
2023-01-04T03:02:14.363Z,76.26
2023-01-04T03:05:05.635Z,76.99
2023-01-04T03:07:47.116Z,78.75
2023-01-04T03:10:36.162Z,78.83
2023-01-04T03:13:10.740Z,78.60
2023-01-04T03:15:38.894Z,80.33
2023-01-04T03:18:18.364Z,80.23
2023-01-04T03:20:46.952Z,79.55
2023-01-04T03:23:34.777Z,80.91
2023-01-04T03:26:27.538Z,80.62
2023-01-04T03:29:14.802Z,81.28
2023-01-04T03:32:03.832Z,81.55
2023-01-04T03:34:48.970Z,82.24
2023-01-04T03:37:35.270Z,84.03
2023-01-04T03:40:32.034Z,83.19
2023-01-04T03:43:36.467Z,82.26
2023-01-04T03:46:47.831Z,84.34
2023-01-04T03:49:25.533Z,82.94
2023-01-04T03:51:54.419Z,84.90
2023-01-04T03:54:25.164Z,83.26
2023-01-04T03:56:52.379Z,85.13
2023-01-04T03:59:18.876Z,86.35
2023-01-04T04:01:45.533Z,86.45
2023-01-04T04:04:30.711Z,85.90
2023-01-04T04:07:16.019Z,86.05
2023-01-04T04:09:42.637Z,85.38
2023-01-04T04:12:09.198Z,85.84
2023-01-04T04:14:35.875Z,86.94
2023-01-04T04:17:02.410Z,86.83
2023-01-04T04:19:28.918Z,86.92
2023-01-04T04:21:55.422Z,86.49
2023-01-04T04:24:24.628Z,86.94
2023-01-04T04:26:52.039Z,86.39
2023-01-04T04:29:18.485Z,88.30
2023-01-04T04:31:45.033Z,88.26
2023-01-04T04:34:11.596Z,87.99
2023-01-04T04:36:38.245Z,88.61
2023-01-04T04:39:04.898Z,88.35
2023-01-04T04:41:41.456Z,87.98
2023-01-04T04:44:19.156Z,87.80
2023-01-04T04:46:46.758Z,88.47
2023-01-04T04:49:14.075Z,89.06
2023-01-04T04:51:41.657Z,90.00
2023-01-04T04:54:10.164Z,89.42
2023-01-04T04:56:37.223Z,88.09
2023-01-04T04:59:05.037Z,89.95
2023-01-04T05:01:31.831Z,89.02
2023-01-04T05:03:58.395Z,90.22
2023-01-04T05:06:24.960Z,89.80
2023-01-04T05:08:51.481Z,88.80
2023-01-04T05:11:38.039Z,88.73
2023-01-04T05:14:04.526Z,89.32
2023-01-04T05:16:31.052Z,89.15
2023-01-04T05:18:57.645Z,90.43
2023-01-04T05:21:24.107Z,87.13
2023-01-04T05:23:50.551Z,90.38
2023-01-04T05:26:17.091Z,88.89
2023-01-04T05:28:46.992Z,88.62
2023-01-04T05:31:16.448Z,89.72
2023-01-04T05:33:42.967Z,91.10
2023-01-04T05:36:09.436Z,90.32
2023-01-04T05:38:35.986Z,89.83
2023-01-04T05:41:02.429Z,88.03
2023-01-04T05:43:28.874Z,87.94
2023-01-04T05:45:56.796Z,88.99
2023-01-04T05:48:24.438Z,87.69
2023-01-04T05:50:53.233Z,90.69
2023-01-04T05:53:19.821Z,88.31
2023-01-04T05:55:48.752Z,89.27
2023-01-04T05:58:15.812Z,89.72
2023-01-04T06:00:42.322Z,90.49
2023-01-04T06:03:08.954Z,90.30
2023-01-04T06:05:35.520Z,90.29
2023-01-04T06:08:01.991Z,90.09
2023-01-04T06:10:28.455Z,88.84
2023-01-04T06:12:54.948Z,88.95
2023-01-04T06:15:21.566Z,91.77
2023-01-04T06:17:48.022Z,91.34
2023-01-04T06:20:14.458Z,92.39
2023-01-04T06:22:41.572Z,90.79
2023-01-04T06:25:09.106Z,91.25
2023-01-04T06:27:35.738Z,90.36
2023-01-04T06:30:02.252Z,92.00
2023-01-04T06:32:28.758Z,92.49
2023-01-04T06:34:55.237Z,92.57
2023-01-04T06:37:21.872Z,92.47
2023-01-04T06:39:48.320Z,93.13
2023-01-04T06:42:33.517Z,92.86
2023-01-04T06:45:00.024Z,90.23
2023-01-04T06:47:26.531Z,91.63
2023-01-04T06:49:53.055Z,92.27
2023-01-04T06:52:19.694Z,91.58
2023-01-04T06:54:46.260Z,92.55
2023-01-04T06:57:13.535Z,92.95
2023-01-04T06:59:40.002Z,91.84
2023-01-04T07:02:06.803Z,91.57
2023-01-04T07:04:33.412Z,92.19
2023-01-04T07:06:59.939Z,92.35
2023-01-04T07:09:26.430Z,93.32
2023-01-04T07:11:52.967Z,92.57
2023-01-04T07:14:19.487Z,91.60
2023-01-04T07:16:46.051Z,92.21
2023-01-04T07:19:12.632Z,92.13
2023-01-04T07:21:39.104Z,90.50
2023-01-04T07:24:05.745Z,92.98
2023-01-04T07:26:32.307Z,93.42
2023-01-04T07:29:17.377Z,92.86
2023-01-04T07:31:48.762Z,93.40
2023-01-04T07:34:17.027Z,92.38
2023-01-04T07:36:43.608Z,91.31
2023-01-04T07:39:12.561Z,94.62
2023-01-04T07:41:40.607Z,92.16
2023-01-04T07:44:08.450Z,95.70
2023-01-04T07:46:35.891Z,95.21
2023-01-04T07:49:02.609Z,93.52
2023-01-04T07:51:30.668Z,94.18
2023-01-04T07:53:57.647Z,94.28
2023-01-04T07:56:24.069Z,94.88
2023-01-04T07:58:50.928Z,93.12
2023-01-04T08:01:19.080Z,92.45
2023-01-04T08:03:46.423Z,93.63
2023-01-04T08:06:14.405Z,94.75
2023-01-04T08:08:41.573Z,93.43
2023-01-04T08:11:11.118Z,93.03
2023-01-04T08:13:37.699Z,94.36
2023-01-04T08:16:04.671Z,95.13
2023-01-04T08:18:31.193Z,92.69
2023-01-04T08:21:06.464Z,91.33
2023-01-04T08:23:33.622Z,92.80
2023-01-04T08:26:11.367Z,94.86
2023-01-04T08:28:38.119Z,94.32
2023-01-04T08:31:11.074Z,94.69
2023-01-04T08:33:38.669Z,93.32
2023-01-04T08:36:08.327Z,93.19
2023-01-04T08:41:47.340Z,93.37
2023-01-04T08:44:07.926Z,93.38
2023-01-04T08:46:34.429Z,93.99
2023-01-04T08:49:00.902Z,95.14
2023-01-04T08:51:27.387Z,93.08
2023-01-04T08:53:53.818Z,94.16
2023-01-04T08:56:20.283Z,93.46
2023-01-04T08:58:46.708Z,93.33
2023-01-04T09:01:13.298Z,94.43
2023-01-04T09:03:39.849Z,92.95
2023-01-04T09:06:08.663Z,93.81
2023-01-04T09:08:36.256Z,94.38
2023-01-04T09:11:06.409Z,94.21
2023-01-04T09:13:33.989Z,94.70
2023-01-04T09:16:07.044Z,95.49
2023-01-04T09:18:34.162Z,95.58
2023-01-04T09:21:05.992Z,94.05
2023-01-04T09:23:34.023Z,95.13
2023-01-04T09:26:09.718Z,94.36
2023-01-04T09:28:36.728Z,96.04
2023-01-04T09:31:24.151Z,94.45
2023-01-04T09:36:37.308Z,95.15
2023-01-04T09:39:03.961Z,93.68
2023-01-04T09:41:37.756Z,95.66
2023-01-04T09:44:19.779Z,95.53
2023-01-04T09:47:04.164Z,94.64
2023-01-04T09:49:39.398Z,93.99
2023-01-04T09:52:20.529Z,94.04
2023-01-04T09:54:58.979Z,92.76
2023-01-04T09:57:33.102Z,95.39
2023-01-04T10:00:08.691Z,92.80
2023-01-04T10:03:12.668Z,94.49
2023-01-04T10:05:40.301Z,95.56
2023-01-04T10:08:15.413Z,93.31
2023-01-04T10:11:08.058Z,91.94
2023-01-04T10:13:47.073Z,95.16
2023-01-04T10:16:15.135Z,94.51
2023-01-04T10:19:28.670Z,95.43
2023-01-04T10:21:49.811Z,93.85
2023-01-04T10:24:25.683Z,95.60
2023-01-04T10:26:59.482Z,93.99
2023-01-04T10:29:57.064Z,93.47
2023-01-04T10:32:39.620Z,95.33
2023-01-04T10:35:21.780Z,96.60
2023-01-04T10:37:58.760Z,96.21
2023-01-04T10:40:26.553Z,93.99
2023-01-04T10:43:02.831Z,93.13
2023-01-04T10:45:46.408Z,94.65
2023-01-04T10:48:20.932Z,92.91
2023-01-04T10:50:59.805Z,93.65
2023-01-04T10:53:41.450Z,94.44
2023-01-04T10:56:23.982Z,93.65
2023-01-04T10:59:04.404Z,97.38
2023-01-04T11:01:59.532Z,95.27
2023-01-04T11:04:32.802Z,94.62
2023-01-04T11:07:06.632Z,96.15
2023-01-04T11:09:35.482Z,95.24
2023-01-04T11:12:02.560Z,93.61
2023-01-04T11:14:35.135Z,94.46
2023-01-04T11:17:07.445Z,95.44
2023-01-04T11:19:34.534Z,93.61
2023-01-04T11:22:20.856Z,95.17
2023-01-04T11:25:33.080Z,93.59
2023-01-04T11:27:48.424Z,96.29
2023-01-04T11:30:18.095Z,95.61
2023-01-04T11:32:51.475Z,95.48
2023-01-04T11:35:42.225Z,94.67
2023-01-04T11:38:17.357Z,94.35
2023-01-04T11:41:06.234Z,95.30
2023-01-04T11:43:39.633Z,98.20
2023-01-04T11:46:24.301Z,95.01
2023-01-04T11:48:52.149Z,94.58
2023-01-04T11:51:28.674Z,95.25
2023-01-04T11:54:02.252Z,96.17
2023-01-04T11:56:30.893Z,95.01
2023-01-04T11:59:24.877Z,94.62
2023-01-04T12:01:53.141Z,95.62
2023-01-04T12:04:25.102Z,96.46
2023-01-04T12:07:07.732Z,94.72
2023-01-04T12:09:34.286Z,94.76
2023-01-04T12:12:01.442Z,96.33
2023-01-04T12:14:32.495Z,95.13
2023-01-04T12:17:17.577Z,94.31
2023-01-04T12:19:44.780Z,93.88
2023-01-04T12:22:23.344Z,93.98
2023-01-04T12:24:53.936Z,93.28
2023-01-04T12:27:21.863Z,93.93
2023-01-04T12:29:48.281Z,92.27
2023-01-04T12:32:15.292Z,94.16
2023-01-04T12:34:44.094Z,95.95
2023-01-04T12:37:12.215Z,94.80
2023-01-04T12:39:44.281Z,92.89
2023-01-04T12:42:21.578Z,94.27
2023-01-04T12:44:51.716Z,94.05
2023-01-04T12:47:36.931Z,91.67
2023-01-04T12:50:13.554Z,95.23
2023-01-04T12:55:43.852Z,94.13
2023-01-04T12:58:49.867Z,93.56
2023-01-04T13:01:28.502Z,91.38
2023-01-04T13:04:04.694Z,94.68
2023-01-04T13:06:35.938Z,94.16
2023-01-04T13:09:02.535Z,91.27
2023-01-04T13:11:48.282Z,92.35
2023-01-04T13:14:21.742Z,90.11
2023-01-04T13:17:06.586Z,90.65
2023-01-04T13:19:33.105Z,90.21
2023-01-04T13:21:59.773Z,89.96
2023-01-04T13:24:36.888Z,90.69
2023-01-04T13:27:10.271Z,88.25
2023-01-04T13:29:36.853Z,89.59
2023-01-04T13:32:04.227Z,88.63
2023-01-04T13:34:52.243Z,89.58
2023-01-04T13:37:27.414Z,89.47
2023-01-04T13:40:15.553Z,90.95
2023-01-04T13:42:43.534Z,89.71
2023-01-04T13:45:51.538Z,88.39
2023-01-04T13:48:21.325Z,87.86
2023-01-04T13:51:05.785Z,88.91
2023-01-04T13:53:32.869Z,90.20
2023-01-04T13:56:03.358Z,89.19
2023-01-04T13:58:31.851Z,89.79
2023-01-04T14:01:14.562Z,88.61
2023-01-04T14:03:51.506Z,89.14
2023-01-04T14:06:47.475Z,89.04
2023-01-04T14:09:17.188Z,87.77
2023-01-04T14:12:09.104Z,89.87
2023-01-04T14:14:46.897Z,90.05
2023-01-04T14:17:21.987Z,89.42
2023-01-04T14:19:54.546Z,86.70
2023-01-04T14:22:21.038Z,89.75
2023-01-04T14:27:45.459Z,91.18
2023-01-04T14:30:17.915Z,89.34
2023-01-04T14:32:59.138Z,91.25
2023-01-04T14:35:27.326Z,91.33
2023-01-04T14:37:54.431Z,89.07
2023-01-04T14:40:27.123Z,89.83
2023-01-04T14:42:54.208Z,89.37
2023-01-04T14:45:20.675Z,88.50
2023-01-04T14:47:47.214Z,88.57
2023-01-04T14:50:14.386Z,89.72
2023-01-04T14:52:40.909Z,90.01
2023-01-04T14:55:07.762Z,89.14
2023-01-04T14:57:38.125Z,89.45
2023-01-04T15:00:05.003Z,90.60
2023-01-04T15:02:33.751Z,89.32
2023-01-04T15:05:00.512Z,90.78
2023-01-04T15:07:36.104Z,92.26
2023-01-04T15:10:11.058Z,92.71
2023-01-04T15:12:37.631Z,90.57
2023-01-04T15:15:04.518Z,90.11
2023-01-04T15:17:31.106Z,89.32
2023-01-04T15:19:57.588Z,91.58
2023-01-04T15:22:24.035Z,89.08
2023-01-04T15:24:50.643Z,89.90
2023-01-04T15:27:17.090Z,91.21
2023-01-04T15:29:43.550Z,93.61
2023-01-04T15:32:10.050Z,91.07
2023-01-04T15:34:39.587Z,89.45
2023-01-04T15:37:10.004Z,89.91
2023-01-04T15:39:36.493Z,92.67
2023-01-04T15:42:21.608Z,90.74
2023-01-04T15:44:48.087Z,89.93
2023-01-04T15:47:14.606Z,89.83
2023-01-04T15:49:41.092Z,89.00
2023-01-04T15:52:07.538Z,90.81
2023-01-04T15:54:34.028Z,87.84
2023-01-04T15:57:00.479Z,87.68
2023-01-04T15:59:27.013Z,88.86
2023-01-04T16:01:53.620Z,89.35
2023-01-04T16:04:20.194Z,86.99
2023-01-04T16:06:46.647Z,87.41
2023-01-04T16:09:13.119Z,87.58
2023-01-04T16:12:02.487Z,88.29
2023-01-04T16:14:29.022Z,86.43
2023-01-04T16:16:56.376Z,86.40
2023-01-04T16:19:22.874Z,87.63
2023-01-04T16:21:49.303Z,87.01
2023-01-04T16:24:44.771Z,85.99
2023-01-04T16:27:02.220Z,86.29
2023-01-04T16:29:28.692Z,86.69
2023-01-04T16:31:55.226Z,86.86
2023-01-04T16:34:21.739Z,84.34
2023-01-04T16:36:51.215Z,84.10
2023-01-04T16:39:17.748Z,83.80
2023-01-04T16:41:44.308Z,84.77
2023-01-04T16:44:13.419Z,86.69
2023-01-04T16:46:40.546Z,86.49
2023-01-04T16:49:12.838Z,85.35
2023-01-04T16:51:40.534Z,84.92
2023-01-04T16:54:09.771Z,84.20
2023-01-04T16:56:37.216Z,85.30
2023-01-04T16:59:03.985Z,86.17
2023-01-04T17:01:33.042Z,85.06
2023-01-04T17:04:01.851Z,84.80
2023-01-04T17:06:30.218Z,84.81
2023-01-04T17:08:57.654Z,84.17
2023-01-04T17:14:13.541Z,83.15
2023-01-04T17:16:41.039Z,84.95
2023-01-04T17:19:07.568Z,87.65
2023-01-04T17:21:35.226Z,87.79
2023-01-04T17:24:02.564Z,86.55
2023-01-04T17:26:30.692Z,85.74
2023-01-04T17:28:58.429Z,85.03
2023-01-04T17:31:31.440Z,86.07
2023-01-04T17:33:58.073Z,87.00
2023-01-04T17:36:24.683Z,85.15
2023-01-04T17:38:51.456Z,84.21
2023-01-04T17:41:20.425Z,83.96
2023-01-04T17:43:48.701Z,85.90
2023-01-04T17:46:22.579Z,84.46
2023-01-04T17:48:58.964Z,87.65
2023-01-04T17:51:37.697Z,85.48
2023-01-04T17:54:05.886Z,86.55
2023-01-04T17:56:37.705Z,85.80
2023-01-04T17:59:06.807Z,86.20
2023-01-04T18:01:34.519Z,83.91
2023-01-04T18:04:02.110Z,85.88
2023-01-04T18:06:31.148Z,86.74
2023-01-04T18:08:58.795Z,86.86
2023-01-04T18:11:25.438Z,87.78
2023-01-04T18:13:53.213Z,86.54
2023-01-04T18:16:26.967Z,87.33
2023-01-04T18:19:00.439Z,87.16
2023-01-04T18:21:30.503Z,86.86
2023-01-04T18:24:34.900Z,86.74
2023-01-04T18:29:32.907Z,85.22
2023-01-04T18:32:00.406Z,86.02
2023-01-04T18:34:27.269Z,85.54
2023-01-04T18:36:54.353Z,86.69
2023-01-04T18:39:21.238Z,85.30
2023-01-04T18:41:47.728Z,87.82
2023-01-04T18:47:02.810Z,86.02
2023-01-04T18:49:29.405Z,85.77
2023-01-04T18:51:55.893Z,86.00
2023-01-04T18:54:22.384Z,85.16
2023-01-04T18:56:49.293Z,85.28
2023-01-04T18:59:19.104Z,84.61
2023-01-04T19:01:46.074Z,86.00
2023-01-04T19:04:15.568Z,83.64
2023-01-04T19:06:43.009Z,84.87
2023-01-04T19:09:10.234Z,84.74
2023-01-04T19:11:36.851Z,83.05
2023-01-04T19:14:03.806Z,84.54
2023-01-04T19:16:31.461Z,84.35
2023-01-04T19:19:02.707Z,84.21
2023-01-04T19:21:29.190Z,85.54
2023-01-04T19:23:56.308Z,87.53
2023-01-04T19:26:23.290Z,85.19
2023-01-04T19:28:51.085Z,86.57
2023-01-04T19:31:20.229Z,85.57
2023-01-04T19:33:46.954Z,86.57
2023-01-04T19:36:18.353Z,84.97
2023-01-04T19:38:44.915Z,84.98
2023-01-04T19:41:27.766Z,85.23
2023-01-04T19:44:05.282Z,84.61
2023-01-04T19:46:32.655Z,85.98
2023-01-04T19:48:59.286Z,85.75
2023-01-04T19:51:27.968Z,86.02
2023-01-04T19:53:55.921Z,86.01
2023-01-04T19:56:22.471Z,84.11
2023-01-04T19:58:49.070Z,86.09
2023-01-04T20:01:18.203Z,84.81
2023-01-04T20:03:45.304Z,85.12
2023-01-04T20:06:12.828Z,85.61
2023-01-04T20:08:40.457Z,84.34
2023-01-04T20:11:07.411Z,84.80
2023-01-04T20:13:34.565Z,85.61
2023-01-04T20:16:01.874Z,83.18
2023-01-04T20:18:28.427Z,86.30
2023-01-04T20:20:56.284Z,84.42
2023-01-04T20:23:22.974Z,84.28
2023-01-04T20:25:52.366Z,84.33
2023-01-04T20:28:20.890Z,88.17
2023-01-04T20:30:47.867Z,85.31
2023-01-04T20:33:15.200Z,84.83
2023-01-04T20:35:43.325Z,85.00
2023-01-04T20:38:11.493Z,86.17
2023-01-04T20:40:38.829Z,85.05
2023-01-04T20:43:27.249Z,84.19
2023-01-04T20:45:53.768Z,84.16
2023-01-04T20:48:20.520Z,84.40
2023-01-04T20:50:46.956Z,84.50
2023-01-04T20:53:13.643Z,83.88
2023-01-04T20:55:44.107Z,83.74
2023-01-04T20:58:13.976Z,84.07
2023-01-04T21:00:41.515Z,80.89
2023-01-04T21:03:10.434Z,84.94
2023-01-04T21:05:41.603Z,85.09
2023-01-04T21:08:08.537Z,83.86
2023-01-04T21:10:36.200Z,82.94
2023-01-04T21:13:03.975Z,84.77
2023-01-04T21:15:31.275Z,84.08
2023-01-04T21:17:57.928Z,84.14
2023-01-04T21:20:25.135Z,83.54
2023-01-04T21:22:51.581Z,84.39
2023-01-04T21:25:18.436Z,85.51
2023-01-04T21:27:44.919Z,85.87
2023-01-04T21:30:12.087Z,83.94
2023-01-04T21:32:38.651Z,84.56
2023-01-04T21:35:05.579Z,84.86
2023-01-04T21:37:32.049Z,83.36
2023-01-04T21:39:58.636Z,83.33
2023-01-04T21:42:25.308Z,83.74
2023-01-04T21:44:52.180Z,83.21
2023-01-04T21:47:18.652Z,83.51
2023-01-04T21:49:45.868Z,83.91
2023-01-04T21:52:12.839Z,82.35
2023-01-04T21:54:39.581Z,81.94
2023-01-04T21:57:08.183Z,80.59
2023-01-04T21:59:35.989Z,82.68
2023-01-04T22:02:02.831Z,82.63
2023-01-04T22:04:29.511Z,83.29
2023-01-04T22:06:56.052Z,81.57
2023-01-04T22:09:25.351Z,83.25
2023-01-04T22:11:52.075Z,83.68
2023-01-04T22:14:19.523Z,82.61
2023-01-04T22:16:46.576Z,80.66
2023-01-04T22:19:14.467Z,81.26
2023-01-04T22:21:42.022Z,80.78
2023-01-04T22:24:15.171Z,82.32
2023-01-04T22:26:42.487Z,83.50
2023-01-04T22:29:10.683Z,82.83
2023-01-04T22:31:37.905Z,84.19
2023-01-04T22:34:04.923Z,83.48
2023-01-04T22:36:31.920Z,85.51
2023-01-04T22:38:58.985Z,83.38
2023-01-04T22:41:28.306Z,83.75
2023-01-04T22:43:57.421Z,83.69
2023-01-04T22:46:25.231Z,82.12
2023-01-04T22:48:52.259Z,83.76
2023-01-04T22:51:19.954Z,84.37
2023-01-04T22:53:47.917Z,84.15
2023-01-04T22:56:19.382Z,85.98
2023-01-04T22:58:52.472Z,84.71
2023-01-04T23:01:20.786Z,84.20
2023-01-04T23:03:47.713Z,84.79
2023-01-04T23:06:14.278Z,84.30
2023-01-04T23:08:41.024Z,84.85
2023-01-04T23:11:09.027Z,84.17
2023-01-04T23:13:35.704Z,84.78
2023-01-04T23:16:06.776Z,84.11
2023-01-04T23:18:34.652Z,84.42
2023-01-04T23:21:01.791Z,84.10
2023-01-04T23:23:28.781Z,83.59
2023-01-04T23:25:55.556Z,85.24
2023-01-04T23:28:22.403Z,83.32
2023-01-04T23:30:49.539Z,84.17
2023-01-04T23:33:16.064Z,85.04
2023-01-04T23:35:43.170Z,86.89
2023-01-04T23:38:09.645Z,87.13
2023-01-04T23:40:36.107Z,85.15
2023-01-04T23:43:02.552Z,85.32
2023-01-04T23:45:29.053Z,84.99
2023-01-04T23:47:55.634Z,84.00
2023-01-04T23:50:22.234Z,83.31
2023-01-04T23:52:48.875Z,81.68
2023-01-04T23:55:15.376Z,81.93
2023-01-04T23:57:41.866Z,82.52
